sensor_id;sensor_type;location;lat;lon;timestamp;temperature;humidity
5743;DHT22;2896;53.500;10.020;2023-04-24T00:00:46;11.70;99.90
5743;DHT22;2896;53.500;10.020;2023-04-24T00:03:13;11.70;99.90
5743;DHT22;2896;53.500;10.020;2023-04-24T00:05:41;11.70;99.90
5743;DHT22;2896;53.500;10.020;2023-04-24T00:08:08;11.70;99.90
5743;DHT22;2896;53.500;10.020;2023-04-24T00:10:34;11.70;1.00
5743;DHT22;2896;53.500;10.020;2023-04-24T00:13:01;11.60;1.00
5743;DHT22;2896;53.500;10.020;2023-04-24T00:15:28;11.60;1.00
5743;DHT22;2896;53.500;10.020;2023-04-24T00:17:54;11.60;1.00
5743;DHT22;2896;53.500;10.020;2023-04-24T00:20:21;11.60;1.00
5743;DHT22;2896;53.500;10.020;2023-04-24T00:22:49;10.60;1.00
5743;DHT22;2896;53.500;10.020;2023-04-24T00:25:16;11.70;1.00
5743;DHT22;2896;53.500;10.020;2023-04-24T00:27:42;11.70;1.00
5743;DHT22;2896;53.500;10.020;2023-04-24T00:30:10;11.60;1.00
5743;DHT22;2896;53.500;10.020;2023-04-24T00:32:36;11.60;1.00
5743;DHT22;2896;53.500;10.020;2023-04-24T00:35:04;11.50;1.00
5743;DHT22;2896;53.500;10.020;2023-04-24T00:37:31;11.50;1.00
5743;DHT22;2896;53.500;10.020;2023-04-24T00:39:59;11.50;1.00
5743;DHT22;2896;53.500;10.020;2023-04-24T00:42:25;11.40;1.00
5743;DHT22;2896;53.500;10.020;2023-04-24T00:44:53;11.30;1.00
5743;DHT22;2896;53.500;10.020;2023-04-24T00:47:19;11.30;1.00
5743;DHT22;2896;53.500;10.020;2023-04-24T00:49:47;11.30;1.00
5743;DHT22;2896;53.500;10.020;2023-04-24T00:52:14;11.30;1.00
5743;DHT22;2896;53.500;10.020;2023-04-24T00:54:43;11.20;1.00
5743;DHT22;2896;53.500;10.020;2023-04-24T00:57:11;11.10;1.00
5743;DHT22;2896;53.500;10.020;2023-04-24T00:59:39;11.10;1.00
5743;DHT22;2896;53.500;10.020;2023-04-24T01:02:06;11.10;1.00
5743;DHT22;2896;53.500;10.020;2023-04-24T01:04:34;11.00;1.00
5743;DHT22;2896;53.500;10.020;2023-04-24T01:07:01;11.00;1.00
5743;DHT22;2896;53.500;10.020;2023-04-24T01:09:28;11.00;1.00
5743;DHT22;2896;53.500;10.020;2023-04-24T01:11:55;11.00;29.00
5743;DHT22;2896;53.500;10.020;2023-04-24T01:14:24;11.00;99.00
5743;DHT22;2896;53.500;10.020;2023-04-24T01:16:50;10.90;99.90
5743;DHT22;2896;53.500;10.020;2023-04-24T01:19:19;11.00;99.90
5743;DHT22;2896;53.500;10.020;2023-04-24T01:21:47;10.90;99.90
5743;DHT22;2896;53.500;10.020;2023-04-24T01:24:18;11.00;99.90
5743;DHT22;2896;53.500;10.020;2023-04-24T01:26:45;10.90;35.70
5743;DHT22;2896;53.500;10.020;2023-04-24T01:29:12;10.90;30.70
5743;DHT22;2896;53.500;10.020;2023-04-24T01:31:39;10.90;33.00
5743;DHT22;2896;53.500;10.020;2023-04-24T01:34:06;10.90;83.20
5743;DHT22;2896;53.500;10.020;2023-04-24T01:36:35;10.90;99.90
5743;DHT22;2896;53.500;10.020;2023-04-24T01:39:02;10.90;85.90
5743;DHT22;2896;53.500;10.020;2023-04-24T01:41:30;11.00;99.90
5743;DHT22;2896;53.500;10.020;2023-04-24T01:43:57;11.00;99.90
5743;DHT22;2896;53.500;10.020;2023-04-24T01:46:24;11.00;85.10
5743;DHT22;2896;53.500;10.020;2023-04-24T01:48:51;11.00;76.50
5743;DHT22;2896;53.500;10.020;2023-04-24T01:51:18;11.00;37.80
5743;DHT22;2896;53.500;10.020;2023-04-24T01:53:45;11.10;55.70
5743;DHT22;2896;53.500;10.020;2023-04-24T01:56:11;11.00;15.80
5743;DHT22;2896;53.500;10.020;2023-04-24T01:58:39;11.00;1.50
5743;DHT22;2896;53.500;10.020;2023-04-24T02:01:07;11.00;1.00
5743;DHT22;2896;53.500;10.020;2023-04-24T02:03:33;10.90;1.00
5743;DHT22;2896;53.500;10.020;2023-04-24T02:06:00;10.80;1.00
5743;DHT22;2896;53.500;10.020;2023-04-24T02:08:27;10.80;1.00
5743;DHT22;2896;53.500;10.020;2023-04-24T02:10:53;10.80;1.00
5743;DHT22;2896;53.500;10.020;2023-04-24T02:13:20;10.60;1.00
5743;DHT22;2896;53.500;10.020;2023-04-24T02:15:48;10.60;1.00
5743;DHT22;2896;53.500;10.020;2023-04-24T02:18:15;10.50;1.00
5743;DHT22;2896;53.500;10.020;2023-04-24T02:20:42;10.50;1.00
5743;DHT22;2896;53.500;10.020;2023-04-24T02:23:08;10.40;1.00
5743;DHT22;2896;53.500;10.020;2023-04-24T02:25:35;10.30;1.00
5743;DHT22;2896;53.500;10.020;2023-04-24T02:28:02;10.30;1.00
5743;DHT22;2896;53.500;10.020;2023-04-24T02:30:28;10.30;1.00
5743;DHT22;2896;53.500;10.020;2023-04-24T02:32:57;10.20;44.00
5743;DHT22;2896;53.500;10.020;2023-04-24T02:35:23;10.20;78.80
5743;DHT22;2896;53.500;10.020;2023-04-24T02:37:50;10.20;88.10
5743;DHT22;2896;53.500;10.020;2023-04-24T02:40:17;10.30;99.90
5743;DHT22;2896;53.500;10.020;2023-04-24T02:42:43;10.20;38.60
5743;DHT22;2896;53.500;10.020;2023-04-24T02:45:10;10.20;57.90
5743;DHT22;2896;53.500;10.020;2023-04-24T02:47:37;10.20;27.00
5743;DHT22;2896;53.500;10.020;2023-04-24T02:50:07;10.20;1.00
5743;DHT22;2896;53.500;10.020;2023-04-24T02:52:33;10.20;1.00
5743;DHT22;2896;53.500;10.020;2023-04-24T02:55:00;10.20;1.00
5743;DHT22;2896;53.500;10.020;2023-04-24T02:57:26;10.10;1.00
5743;DHT22;2896;53.500;10.020;2023-04-24T02:59:53;10.10;1.00
5743;DHT22;2896;53.500;10.020;2023-04-24T03:02:20;10.20;1.00
5743;DHT22;2896;53.500;10.020;2023-04-24T03:04:46;10.20;1.00
5743;DHT22;2896;53.500;10.020;2023-04-24T03:07:15;10.20;1.00
5743;DHT22;2896;53.500;10.020;2023-04-24T03:09:42;10.20;1.00
5743;DHT22;2896;53.500;10.020;2023-04-24T03:12:08;10.20;1.00
5743;DHT22;2896;53.500;10.020;2023-04-24T03:14:35;10.20;1.00
5743;DHT22;2896;53.500;10.020;2023-04-24T03:17:01;10.20;99.90
5743;DHT22;2896;53.500;10.020;2023-04-24T03:19:28;10.20;99.90
5743;DHT22;2896;53.500;10.020;2023-04-24T03:21:55;10.20;99.90
5743;DHT22;2896;53.500;10.020;2023-04-24T03:24:23;10.20;99.90
5743;DHT22;2896;53.500;10.020;2023-04-24T03:26:50;10.10;99.90
5743;DHT22;2896;53.500;10.020;2023-04-24T03:29:17;10.10;99.90
5743;DHT22;2896;53.500;10.020;2023-04-24T03:31:43;10.10;99.90
5743;DHT22;2896;53.500;10.020;2023-04-24T03:34:10;10.00;99.90
5743;DHT22;2896;53.500;10.020;2023-04-24T03:36:36;10.00;99.90
5743;DHT22;2896;53.500;10.020;2023-04-24T03:39:03;10.10;99.90
5743;DHT22;2896;53.500;10.020;2023-04-24T03:41:31;10.00;99.30
5743;DHT22;2896;53.500;10.020;2023-04-24T03:43:58;10.00;99.90
5743;DHT22;2896;53.500;10.020;2023-04-24T03:46:25;10.00;99.90
5743;DHT22;2896;53.500;10.020;2023-04-24T03:48:52;10.00;93.00
5743;DHT22;2896;53.500;10.020;2023-04-24T03:51:18;10.00;54.90
5743;DHT22;2896;53.500;10.020;2023-04-24T03:53:45;9.90;48.00
5743;DHT22;2896;53.500;10.020;2023-04-24T03:56:11;9.90;17.10
5743;DHT22;2896;53.500;10.020;2023-04-24T03:58:39;9.80;1.00
5743;DHT22;2896;53.500;10.020;2023-04-24T04:01:06;9.80;17.10
5743;DHT22;2896;53.500;10.020;2023-04-24T04:03:33;9.90;1.00
5743;DHT22;2896;53.500;10.020;2023-04-24T04:05:59;9.80;1.00
5743;DHT22;2896;53.500;10.020;2023-04-24T04:08:26;9.70;1.00
5743;DHT22;2896;53.500;10.020;2023-04-24T04:10:53;9.70;1.00
5743;DHT22;2896;53.500;10.020;2023-04-24T04:13:20;9.70;1.00
5743;DHT22;2896;53.500;10.020;2023-04-24T04:15:48;9.70;1.00
5743;DHT22;2896;53.500;10.020;2023-04-24T04:18:15;9.70;1.00
5743;DHT22;2896;53.500;10.020;2023-04-24T04:20:42;9.60;1.00
5743;DHT22;2896;53.500;10.020;2023-04-24T04:23:08;9.60;1.00
5743;DHT22;2896;53.500;10.020;2023-04-24T04:25:35;9.60;1.00
5743;DHT22;2896;53.500;10.020;2023-04-24T04:28:01;9.70;1.00
5743;DHT22;2896;53.500;10.020;2023-04-24T04:30:28;9.70;1.00
5743;DHT22;2896;53.500;10.020;2023-04-24T04:32:58;9.70;1.00
5743;DHT22;2896;53.500;10.020;2023-04-24T04:35:25;9.70;1.00
5743;DHT22;2896;53.500;10.020;2023-04-24T04:37:52;9.70;1.00
5743;DHT22;2896;53.500;10.020;2023-04-24T04:40:19;9.70;1.00
5743;DHT22;2896;53.500;10.020;2023-04-24T04:42:45;9.80;1.00
5743;DHT22;2896;53.500;10.020;2023-04-24T04:45:12;9.80;1.00
5743;DHT22;2896;53.500;10.020;2023-04-24T04:47:42;9.80;1.00
5743;DHT22;2896;53.500;10.020;2023-04-24T04:50:11;9.80;1.00
5743;DHT22;2896;53.500;10.020;2023-04-24T04:52:37;9.90;1.00
5743;DHT22;2896;53.500;10.020;2023-04-24T04:55:05;10.00;1.00
5743;DHT22;2896;53.500;10.020;2023-04-24T04:57:31;10.10;1.00
5743;DHT22;2896;53.500;10.020;2023-04-24T04:59:58;10.00;1.00
5743;DHT22;2896;53.500;10.020;2023-04-24T05:02:25;10.00;1.00
5743;DHT22;2896;53.500;10.020;2023-04-24T05:04:52;7.20;1.00
5743;DHT22;2896;53.500;10.020;2023-04-24T05:07:20;10.10;1.00
5743;DHT22;2896;53.500;10.020;2023-04-24T05:09:47;10.10;1.00
5743;DHT22;2896;53.500;10.020;2023-04-24T05:12:13;10.20;1.00
5743;DHT22;2896;53.500;10.020;2023-04-24T05:14:40;10.20;1.00
5743;DHT22;2896;53.500;10.020;2023-04-24T05:17:06;10.20;1.00
5743;DHT22;2896;53.500;10.020;2023-04-24T05:19:33;10.20;1.00
5743;DHT22;2896;53.500;10.020;2023-04-24T05:22:01;10.20;1.00
5743;DHT22;2896;53.500;10.020;2023-04-24T05:24:30;10.40;1.00
5743;DHT22;2896;53.500;10.020;2023-04-24T05:26:57;10.40;1.00
5743;DHT22;2896;53.500;10.020;2023-04-24T05:29:24;10.40;1.00
5743;DHT22;2896;53.500;10.020;2023-04-24T05:31:51;10.50;1.00
5743;DHT22;2896;53.500;10.020;2023-04-24T05:34:18;10.60;1.00
5743;DHT22;2896;53.500;10.020;2023-04-24T05:36:45;10.60;1.00
5743;DHT22;2896;53.500;10.020;2023-04-24T05:39:12;10.60;1.00
5743;DHT22;2896;53.500;10.020;2023-04-24T05:41:40;10.70;1.00
5743;DHT22;2896;53.500;10.020;2023-04-24T05:44:06;10.70;1.00
5743;DHT22;2896;53.500;10.020;2023-04-24T05:46:33;10.80;1.00
5743;DHT22;2896;53.500;10.020;2023-04-24T05:49:00;10.80;1.00
5743;DHT22;2896;53.500;10.020;2023-04-24T05:51:26;10.90;1.00
5743;DHT22;2896;53.500;10.020;2023-04-24T05:53:53;11.00;1.00
5743;DHT22;2896;53.500;10.020;2023-04-24T05:56:20;11.20;1.00
5743;DHT22;2896;53.500;10.020;2023-04-24T05:58:48;11.90;99.90
5743;DHT22;2896;53.500;10.020;2023-04-24T06:01:15;12.40;99.90
5743;DHT22;2896;53.500;10.020;2023-04-24T06:03:42;13.20;99.90
5743;DHT22;2896;53.500;10.020;2023-04-24T06:06:08;13.80;99.90
5743;DHT22;2896;53.500;10.020;2023-04-24T06:08:35;14.60;99.90
5743;DHT22;2896;53.500;10.020;2023-04-24T06:11:02;14.80;99.90
5743;DHT22;2896;53.500;10.020;2023-04-24T06:13:29;14.90;99.90
5743;DHT22;2896;53.500;10.020;2023-04-24T06:15:57;14.90;99.90
5743;DHT22;2896;53.500;10.020;2023-04-24T06:18:23;15.20;99.90
5743;DHT22;2896;53.500;10.020;2023-04-24T06:20:50;15.50;99.90
5743;DHT22;2896;53.500;10.020;2023-04-24T06:23:17;15.60;99.90
5743;DHT22;2896;53.500;10.020;2023-04-24T06:25:43;15.90;99.90
5743;DHT22;2896;53.500;10.020;2023-04-24T06:28:10;16.20;99.90
5743;DHT22;2896;53.500;10.020;2023-04-24T06:30:37;16.50;99.90
5743;DHT22;2896;53.500;10.020;2023-04-24T06:33:06;17.20;99.90
5743;DHT22;2896;53.500;10.020;2023-04-24T06:35:33;16.60;99.90
5743;DHT22;2896;53.500;10.020;2023-04-24T06:38:00;16.30;99.90
5743;DHT22;2896;53.500;10.020;2023-04-24T06:40:27;16.30;99.90
5743;DHT22;2896;53.500;10.020;2023-04-24T06:42:54;15.90;99.90
5743;DHT22;2896;53.500;10.020;2023-04-24T06:45:21;15.70;99.90
5743;DHT22;2896;53.500;10.020;2023-04-24T06:47:47;15.90;99.90
5743;DHT22;2896;53.500;10.020;2023-04-24T06:50:15;15.80;99.90
5743;DHT22;2896;53.500;10.020;2023-04-24T06:52:42;15.30;99.90
5743;DHT22;2896;53.500;10.020;2023-04-24T06:55:09;15.20;99.90
5743;DHT22;2896;53.500;10.020;2023-04-24T06:57:36;15.10;99.90
5743;DHT22;2896;53.500;10.020;2023-04-24T07:00:04;15.10;99.90
5743;DHT22;2896;53.500;10.020;2023-04-24T07:02:32;15.20;99.90
5743;DHT22;2896;53.500;10.020;2023-04-24T07:04:58;15.40;99.90
5743;DHT22;2896;53.500;10.020;2023-04-24T07:07:28;15.40;99.90
5743;DHT22;2896;53.500;10.020;2023-04-24T07:09:54;15.30;99.90
5743;DHT22;2896;53.500;10.020;2023-04-24T07:12:21;17.60;99.90
5743;DHT22;2896;53.500;10.020;2023-04-24T07:14:48;15.00;99.90
5743;DHT22;2896;53.500;10.020;2023-04-24T07:17:15;15.30;99.90
5743;DHT22;2896;53.500;10.020;2023-04-24T07:19:42;15.40;99.90
5743;DHT22;2896;53.500;10.020;2023-04-24T07:22:08;15.30;99.90
5743;DHT22;2896;53.500;10.020;2023-04-24T07:24:38;15.70;99.90
5743;DHT22;2896;53.500;10.020;2023-04-24T07:27:04;15.60;99.90
5743;DHT22;2896;53.500;10.020;2023-04-24T07:29:31;15.60;99.90
5743;DHT22;2896;53.500;10.020;2023-04-24T07:31:58;15.80;99.90
5743;DHT22;2896;53.500;10.020;2023-04-24T07:34:24;15.90;99.90
5743;DHT22;2896;53.500;10.020;2023-04-24T07:36:51;15.80;99.90
5743;DHT22;2896;53.500;10.020;2023-04-24T07:39:18;15.70;99.90
5743;DHT22;2896;53.500;10.020;2023-04-24T07:41:46;16.20;99.90
5743;DHT22;2896;53.500;10.020;2023-04-24T07:44:13;15.40;99.90
5743;DHT22;2896;53.500;10.020;2023-04-24T07:46:40;15.40;99.90
5743;DHT22;2896;53.500;10.020;2023-04-24T07:49:06;15.10;99.90
5743;DHT22;2896;53.500;10.020;2023-04-24T07:51:33;14.80;99.90
5743;DHT22;2896;53.500;10.020;2023-04-24T07:54:03;14.90;99.90
5743;DHT22;2896;53.500;10.020;2023-04-24T07:56:30;15.10;99.90
5743;DHT22;2896;53.500;10.020;2023-04-24T07:58:59;15.40;99.90
5743;DHT22;2896;53.500;10.020;2023-04-24T08:01:26;15.50;99.90
5743;DHT22;2896;53.500;10.020;2023-04-24T08:03:53;15.50;99.90
5743;DHT22;2896;53.500;10.020;2023-04-24T08:06:20;15.00;99.90
5743;DHT22;2896;53.500;10.020;2023-04-24T08:08:46;15.10;99.90
5743;DHT22;2896;53.500;10.020;2023-04-24T08:11:13;15.20;99.90
5743;DHT22;2896;53.500;10.020;2023-04-24T08:13:40;15.30;99.90
5743;DHT22;2896;53.500;10.020;2023-04-24T08:16:08;15.00;99.90
5743;DHT22;2896;53.500;10.020;2023-04-24T08:18:34;14.80;99.90
5743;DHT22;2896;53.500;10.020;2023-04-24T08:21:01;14.80;99.90
5743;DHT22;2896;53.500;10.020;2023-04-24T08:23:28;14.90;99.90
5743;DHT22;2896;53.500;10.020;2023-04-24T08:25:55;15.00;99.90
5743;DHT22;2896;53.500;10.020;2023-04-24T08:28:22;14.80;99.90
5743;DHT22;2896;53.500;10.020;2023-04-24T08:30:49;14.50;99.90
5743;DHT22;2896;53.500;10.020;2023-04-24T08:33:21;14.50;99.90
5743;DHT22;2896;53.500;10.020;2023-04-24T08:35:48;14.40;99.90
5743;DHT22;2896;53.500;10.020;2023-04-24T08:38:15;14.30;99.90
5743;DHT22;2896;53.500;10.020;2023-04-24T08:40:41;14.00;99.90
5743;DHT22;2896;53.500;10.020;2023-04-24T08:43:09;14.10;99.90
5743;DHT22;2896;53.500;10.020;2023-04-24T08:45:36;14.70;99.90
5743;DHT22;2896;53.500;10.020;2023-04-24T08:48:04;14.40;99.90
5743;DHT22;2896;53.500;10.020;2023-04-24T08:50:34;14.40;99.90
5743;DHT22;2896;53.500;10.020;2023-04-24T08:53:01;14.80;99.90
5743;DHT22;2896;53.500;10.020;2023-04-24T08:55:29;15.00;99.90
5743;DHT22;2896;53.500;10.020;2023-04-24T08:57:57;14.60;99.90
5743;DHT22;2896;53.500;10.020;2023-04-24T09:00:25;14.90;99.90
5743;DHT22;2896;53.500;10.020;2023-04-24T09:02:53;14.70;99.90
5743;DHT22;2896;53.500;10.020;2023-04-24T09:05:22;14.80;99.90
5743;DHT22;2896;53.500;10.020;2023-04-24T09:07:54;14.90;99.90
5743;DHT22;2896;53.500;10.020;2023-04-24T09:10:22;14.70;99.90
5743;DHT22;2896;53.500;10.020;2023-04-24T09:12:50;14.50;99.90
5743;DHT22;2896;53.500;10.020;2023-04-24T09:15:17;14.30;99.90
5743;DHT22;2896;53.500;10.020;2023-04-24T09:17:44;14.20;99.90
5743;DHT22;2896;53.500;10.020;2023-04-24T09:20:11;14.20;99.90
5743;DHT22;2896;53.500;10.020;2023-04-24T09:22:37;14.30;99.90
5743;DHT22;2896;53.500;10.020;2023-04-24T09:25:07;14.10;99.90
5743;DHT22;2896;53.500;10.020;2023-04-24T09:27:34;14.30;99.90
5743;DHT22;2896;53.500;10.020;2023-04-24T09:30:02;14.30;99.90
5743;DHT22;2896;53.500;10.020;2023-04-24T09:32:29;14.20;99.90
5743;DHT22;2896;53.500;10.020;2023-04-24T09:35:08;14.20;99.90
5743;DHT22;2896;53.500;10.020;2023-04-24T09:37:36;14.30;99.90
5743;DHT22;2896;53.500;10.020;2023-04-24T09:40:12;14.40;99.90
5743;DHT22;2896;53.500;10.020;2023-04-24T09:42:39;14.50;99.90
5743;DHT22;2896;53.500;10.020;2023-04-24T09:45:09;14.30;99.90
5743;DHT22;2896;53.500;10.020;2023-04-24T09:47:37;14.30;99.90
5743;DHT22;2896;53.500;10.020;2023-04-24T09:50:14;14.40;99.90
5743;DHT22;2896;53.500;10.020;2023-04-24T09:52:42;14.50;99.90
5743;DHT22;2896;53.500;10.020;2023-04-24T09:55:17;14.50;99.90
5743;DHT22;2896;53.500;10.020;2023-04-24T09:57:48;14.60;99.90
5743;DHT22;2896;53.500;10.020;2023-04-24T10:00:18;14.90;99.90
5743;DHT22;2896;53.500;10.020;2023-04-24T10:02:49;14.90;99.90
5743;DHT22;2896;53.500;10.020;2023-04-24T10:05:17;14.60;99.90
5743;DHT22;2896;53.500;10.020;2023-04-24T10:07:44;14.60;99.90
5743;DHT22;2896;53.500;10.020;2023-04-24T10:10:11;14.50;99.90
5743;DHT22;2896;53.500;10.020;2023-04-24T10:12:39;14.40;99.90
5743;DHT22;2896;53.500;10.020;2023-04-24T10:15:08;14.50;99.90
5743;DHT22;2896;53.500;10.020;2023-04-24T10:17:37;14.50;99.90
5743;DHT22;2896;53.500;10.020;2023-04-24T10:20:06;14.40;99.90
5743;DHT22;2896;53.500;10.020;2023-04-24T10:22:33;14.50;99.90
5743;DHT22;2896;53.500;10.020;2023-04-24T10:25:03;14.50;99.90
5743;DHT22;2896;53.500;10.020;2023-04-24T10:27:31;14.40;99.90
5743;DHT22;2896;53.500;10.020;2023-04-24T10:30:01;14.30;99.90
5743;DHT22;2896;53.500;10.020;2023-04-24T10:32:28;14.30;99.90
5743;DHT22;2896;53.500;10.020;2023-04-24T10:34:55;14.00;99.90
5743;DHT22;2896;53.500;10.020;2023-04-24T10:37:23;13.80;99.90
5743;DHT22;2896;53.500;10.020;2023-04-24T10:39:50;13.90;99.90
5743;DHT22;2896;53.500;10.020;2023-04-24T10:42:20;13.70;99.90
5743;DHT22;2896;53.500;10.020;2023-04-24T10:44:47;13.50;99.90
5743;DHT22;2896;53.500;10.020;2023-04-24T10:47:15;13.50;99.90
5743;DHT22;2896;53.500;10.020;2023-04-24T10:49:42;13.70;99.90
5743;DHT22;2896;53.500;10.020;2023-04-24T10:52:09;13.70;99.90
5743;DHT22;2896;53.500;10.020;2023-04-24T10:54:42;13.90;99.90
5743;DHT22;2896;53.500;10.020;2023-04-24T10:57:26;14.80;99.90
5743;DHT22;2896;53.500;10.020;2023-04-24T11:00:12;14.90;99.90
5743;DHT22;2896;53.500;10.020;2023-04-24T11:02:41;15.10;99.90
5743;DHT22;2896;53.500;10.020;2023-04-24T11:05:14;15.20;99.90
5743;DHT22;2896;53.500;10.020;2023-04-24T11:08:09;17.90;99.90
5743;DHT22;2896;53.500;10.020;2023-04-24T11:10:38;16.30;99.90
5743;DHT22;2896;53.500;10.020;2023-04-24T11:13:05;15.90;99.90
5743;DHT22;2896;53.500;10.020;2023-04-24T11:15:32;16.40;99.90
5743;DHT22;2896;53.500;10.020;2023-04-24T11:18:00;16.50;99.90
5743;DHT22;2896;53.500;10.020;2023-04-24T11:20:27;15.90;99.90
5743;DHT22;2896;53.500;10.020;2023-04-24T11:22:54;15.90;99.90
5743;DHT22;2896;53.500;10.020;2023-04-24T11:25:23;15.50;99.90
5743;DHT22;2896;53.500;10.020;2023-04-24T11:27:50;15.20;99.90
5743;DHT22;2896;53.500;10.020;2023-04-24T11:30:29;14.90;99.90
5743;DHT22;2896;53.500;10.020;2023-04-24T11:33:03;15.40;99.90
5743;DHT22;2896;53.500;10.020;2023-04-24T11:35:35;15.90;99.90
5743;DHT22;2896;53.500;10.020;2023-04-24T11:38:03;16.10;99.90
5743;DHT22;2896;53.500;10.020;2023-04-24T11:40:30;15.90;99.90
5743;DHT22;2896;53.500;10.020;2023-04-24T11:43:00;15.70;99.90
5743;DHT22;2896;53.500;10.020;2023-04-24T11:45:28;15.60;99.90
5743;DHT22;2896;53.500;10.020;2023-04-24T11:47:54;15.90;99.90
5743;DHT22;2896;53.500;10.020;2023-04-24T11:50:24;16.10;99.90
5743;DHT22;2896;53.500;10.020;2023-04-24T11:52:53;15.90;99.90
5743;DHT22;2896;53.500;10.020;2023-04-24T11:55:25;16.00;99.90
5743;DHT22;2896;53.500;10.020;2023-04-24T11:57:54;16.10;99.90
5743;DHT22;2896;53.500;10.020;2023-04-24T12:00:22;16.10;99.90
5743;DHT22;2896;53.500;10.020;2023-04-24T12:02:50;16.30;99.90
5743;DHT22;2896;53.500;10.020;2023-04-24T12:05:19;16.70;99.90
5743;DHT22;2896;53.500;10.020;2023-04-24T12:07:47;16.70;99.90
5743;DHT22;2896;53.500;10.020;2023-04-24T12:10:14;16.60;99.90
5743;DHT22;2896;53.500;10.020;2023-04-24T12:12:41;16.50;99.90
5743;DHT22;2896;53.500;10.020;2023-04-24T12:15:08;16.40;99.90
5743;DHT22;2896;53.500;10.020;2023-04-24T12:17:35;16.40;99.90
5743;DHT22;2896;53.500;10.020;2023-04-24T12:20:04;16.10;99.90
5743;DHT22;2896;53.500;10.020;2023-04-24T12:22:43;16.10;99.90
5743;DHT22;2896;53.500;10.020;2023-04-24T12:25:13;15.90;99.90
5743;DHT22;2896;53.500;10.020;2023-04-24T12:27:40;16.00;99.90
5743;DHT22;2896;53.500;10.020;2023-04-24T12:30:11;16.10;99.90
5743;DHT22;2896;53.500;10.020;2023-04-24T12:32:41;15.80;99.90
5743;DHT22;2896;53.500;10.020;2023-04-24T12:35:08;15.60;99.90
5743;DHT22;2896;53.500;10.020;2023-04-24T12:37:35;15.40;99.90
5743;DHT22;2896;53.500;10.020;2023-04-24T12:40:04;15.20;99.90
5743;DHT22;2896;53.500;10.020;2023-04-24T12:42:34;15.00;99.90
5743;DHT22;2896;53.500;10.020;2023-04-24T12:45:02;14.90;99.90
5743;DHT22;2896;53.500;10.020;2023-04-24T12:47:30;14.90;99.90
5743;DHT22;2896;53.500;10.020;2023-04-24T12:49:57;14.50;99.90
5743;DHT22;2896;53.500;10.020;2023-04-24T12:52:25;14.10;99.90
5743;DHT22;2896;53.500;10.020;2023-04-24T12:54:53;14.00;99.90
5743;DHT22;2896;53.500;10.020;2023-04-24T12:57:20;14.00;99.90
5743;DHT22;2896;53.500;10.020;2023-04-24T12:59:49;14.00;99.90
5743;DHT22;2896;53.500;10.020;2023-04-24T13:02:16;13.80;99.90
5743;DHT22;2896;53.500;10.020;2023-04-24T13:04:44;13.80;99.90
5743;DHT22;2896;53.500;10.020;2023-04-24T13:07:11;13.60;99.90
5743;DHT22;2896;53.500;10.020;2023-04-24T13:09:38;13.60;99.90
5743;DHT22;2896;53.500;10.020;2023-04-24T13:12:04;13.50;99.90
5743;DHT22;2896;53.500;10.020;2023-04-24T13:14:31;13.50;99.90
5743;DHT22;2896;53.500;10.020;2023-04-24T13:16:59;13.40;99.90
5743;DHT22;2896;53.500;10.020;2023-04-24T13:19:27;13.50;99.90
5743;DHT22;2896;53.500;10.020;2023-04-24T13:21:55;13.20;99.90
5743;DHT22;2896;53.500;10.020;2023-04-24T13:24:22;13.20;99.90
5743;DHT22;2896;53.500;10.020;2023-04-24T13:26:50;13.30;99.90
5743;DHT22;2896;53.500;10.020;2023-04-24T13:29:17;13.10;99.90
5743;DHT22;2896;53.500;10.020;2023-04-24T13:31:43;13.20;99.90
5743;DHT22;2896;53.500;10.020;2023-04-24T13:34:12;13.30;99.90
5743;DHT22;2896;53.500;10.020;2023-04-24T13:36:39;13.50;99.90
5743;DHT22;2896;53.500;10.020;2023-04-24T13:39:06;13.30;99.90
5743;DHT22;2896;53.500;10.020;2023-04-24T13:41:33;13.50;99.90
5743;DHT22;2896;53.500;10.020;2023-04-24T13:44:00;13.50;99.90
5743;DHT22;2896;53.500;10.020;2023-04-24T13:46:27;13.60;99.90
5743;DHT22;2896;53.500;10.020;2023-04-24T13:48:54;13.60;99.90
5743;DHT22;2896;53.500;10.020;2023-04-24T13:51:23;13.50;99.90
5743;DHT22;2896;53.500;10.020;2023-04-24T13:53:52;13.60;99.90
5743;DHT22;2896;53.500;10.020;2023-04-24T13:56:18;13.50;99.90
5743;DHT22;2896;53.500;10.020;2023-04-24T13:58:45;13.30;99.90
5743;DHT22;2896;53.500;10.020;2023-04-24T14:01:12;13.30;99.90
5743;DHT22;2896;53.500;10.020;2023-04-24T14:03:40;13.30;99.90
5743;DHT22;2896;53.500;10.020;2023-04-24T14:06:08;13.30;99.90
5743;DHT22;2896;53.500;10.020;2023-04-24T14:08:36;13.30;99.90
5743;DHT22;2896;53.500;10.020;2023-04-24T14:11:03;13.20;99.90
5743;DHT22;2896;53.500;10.020;2023-04-24T14:13:31;13.30;99.90
5743;DHT22;2896;53.500;10.020;2023-04-24T14:15:58;13.40;99.90
5743;DHT22;2896;53.500;10.020;2023-04-24T14:18:24;13.60;99.90
5743;DHT22;2896;53.500;10.020;2023-04-24T14:20:52;13.90;99.90
5743;DHT22;2896;53.500;10.020;2023-04-24T14:23:22;13.80;99.90
5743;DHT22;2896;53.500;10.020;2023-04-24T14:25:49;13.90;99.90
5743;DHT22;2896;53.500;10.020;2023-04-24T14:28:18;13.80;99.90
5743;DHT22;2896;53.500;10.020;2023-04-24T14:30:44;13.80;99.90
5743;DHT22;2896;53.500;10.020;2023-04-24T14:33:11;13.70;99.90
5743;DHT22;2896;53.500;10.020;2023-04-24T14:35:38;13.80;99.90
5743;DHT22;2896;53.500;10.020;2023-04-24T14:38:05;13.80;99.90
5743;DHT22;2896;53.500;10.020;2023-04-24T14:40:32;13.50;99.90
5743;DHT22;2896;53.500;10.020;2023-04-24T14:43:00;13.20;99.90
5743;DHT22;2896;53.500;10.020;2023-04-24T14:45:27;13.10;99.90
5743;DHT22;2896;53.500;10.020;2023-04-24T14:47:54;12.90;99.90
5743;DHT22;2896;53.500;10.020;2023-04-24T14:50:20;12.60;99.90
5743;DHT22;2896;53.500;10.020;2023-04-24T14:52:47;12.70;99.90
5743;DHT22;2896;53.500;10.020;2023-04-24T14:55:14;12.60;99.90
5743;DHT22;2896;53.500;10.020;2023-04-24T14:57:41;12.60;99.90
5743;DHT22;2896;53.500;10.020;2023-04-24T15:00:11;12.30;99.90
5743;DHT22;2896;53.500;10.020;2023-04-24T15:02:37;12.20;99.90
5743;DHT22;2896;53.500;10.020;2023-04-24T15:05:07;12.30;99.90
5743;DHT22;2896;53.500;10.020;2023-04-24T15:07:34;12.30;99.90
5743;DHT22;2896;53.500;10.020;2023-04-24T15:10:02;12.10;99.90
5743;DHT22;2896;53.500;10.020;2023-04-24T15:12:28;11.90;1.00
5743;DHT22;2896;53.500;10.020;2023-04-24T15:14:55;11.70;1.00
5743;DHT22;2896;53.500;10.020;2023-04-24T15:17:23;11.60;1.00
5743;DHT22;2896;53.500;10.020;2023-04-24T15:19:49;11.50;1.00
5743;DHT22;2896;53.500;10.020;2023-04-24T15:22:16;11.40;1.00
5743;DHT22;2896;53.500;10.020;2023-04-24T15:24:43;11.20;1.00
5743;DHT22;2896;53.500;10.020;2023-04-24T15:27:10;11.20;1.00
5743;DHT22;2896;53.500;10.020;2023-04-24T15:29:37;11.00;1.00
5743;DHT22;2896;53.500;10.020;2023-04-24T15:32:04;11.00;1.00
5743;DHT22;2896;53.500;10.020;2023-04-24T15:34:32;11.00;1.00
5743;DHT22;2896;53.500;10.020;2023-04-24T15:36:59;11.00;1.00
5743;DHT22;2896;53.500;10.020;2023-04-24T15:39:26;11.00;1.00
5743;DHT22;2896;53.500;10.020;2023-04-24T15:41:53;10.90;1.00
5743;DHT22;2896;53.500;10.020;2023-04-24T15:44:21;10.60;1.00
5743;DHT22;2896;53.500;10.020;2023-04-24T15:46:48;10.60;1.00
5743;DHT22;2896;53.500;10.020;2023-04-24T15:49:16;10.60;1.00
5743;DHT22;2896;53.500;10.020;2023-04-24T15:51:44;10.70;1.00
5743;DHT22;2896;53.500;10.020;2023-04-24T15:54:11;10.30;1.00